Time;durP1;ratioP1;P1;durP2;ratioP2;P2;SDS_P1;SDS_P2;PMS_P1;PMS_P2;Temp;Humidity;BMP_temperature;BMP_pressure;BME280_temperature;BME280_humidity;BME280_pressure;Samples;Min_cycle;Max_cycle;Signal;HPM_P1;HPM_P2
2021/06/10 00:00:42;;;;;;;8.30;7.28;;;;;;;15.20;95.58;96763.25;4965506;28;20034;-61
2021/06/10 00:03:08;;;;;;;8.80;6.47;;;;;;;15.14;96.17;96770.47;4967400;28;20037;-62
2021/06/10 00:05:34;;;;;;;9.23;6.05;;;;;;;15.13;95.35;96764.09;4967133;28;20090;-61
2021/06/10 00:08:00;;;;;;;11.55;5.78;;;;;;;12.65;94.70;96376.72;4965640;28;20832;-61
2021/06/10 00:10:29;;;;;;;8.85;6.30;;;;;;;15.09;95.70;96754.16;4966232;28;20374;-62
2021/06/10 00:12:55;;;;;;;10.00;5.72;;;;;;;15.16;94.24;96762.47;4966517;28;20480;-62
2021/06/10 00:15:25;;;;;;;6.80;5.13;;;;;;;15.09;94.75;96756.94;4965696;28;20102;-61
2021/06/10 00:17:51;;;;;;;7.70;5.85;;;;;;;15.00;96.15;96742.66;4964873;28;20035;-61
2021/06/10 00:20:21;;;;;;;9.15;6.05;;;;;;;14.89;96.87;96741.91;4964249;28;20030;-63
2021/06/10 00:22:47;;;;;;;11.63;5.97;;;;;;;14.77;98.28;96745.13;4966558;28;20365;-61
2021/06/10 00:25:13;;;;;;;8.63;6.63;;;;;;;14.61;98.31;96720.50;4965535;28;20035;-62
2021/06/10 00:27:40;;;;;;;8.40;6.00;;;;;;;14.38;97.49;96685.97;4965702;28;20210;-62
2021/06/10 00:30:15;;;;;;;5.85;4.97;;;;;;;13.45;96.28;96523.13;4963279;28;20034;-63
2021/06/10 00:32:40;;;;;;;6.82;5.90;;;;;;;14.86;96.62;96742.69;4965586;28;20084;-62
2021/06/10 00:35:06;;;;;;;8.40;5.93;;;;;;;14.92;96.20;96741.88;4965150;28;20038;-62
2021/06/10 00:37:31;;;;;;;7.40;5.75;;;;;;;14.89;95.74;96737.09;4963976;28;20049;-62
2021/06/10 00:39:57;;;;;;;9.55;5.75;;;;;;;14.85;95.43;96738.31;4965535;28;20105;-62
2021/06/10 00:42:22;;;;;;;9.75;6.32;;;;;;;14.50;95.01;96686.31;4965312;28;20065;-62
2021/06/10 00:44:48;;;;;;;13.02;7.82;;;;;;;14.36;95.03;96672.44;4965491;28;20034;-62
2021/06/10 00:47:14;;;;;;;14.60;9.05;;;;;;;14.72;95.40;96726.03;4965303;28;20038;-62
2021/06/10 00:49:39;;;;;;;11.25;8.38;;;;;;;14.65;96.29;96726.84;4964055;28;20033;-65
2021/06/10 00:52:05;;;;;;;13.85;8.30;;;;;;;14.20;96.46;96660.09;4965160;28;20511;-64
2021/06/10 00:54:31;;;;;;;10.38;7.90;;;;;;;14.83;95.42;96715.63;4965472;28;20035;-65
2021/06/10 00:56:56;;;;;;;12.43;8.48;;;;;;;13.91;96.67;96637.09;4966184;28;20039;-62
2021/06/10 00:59:22;;;;;;;17.77;10.05;;;;;;;13.53;100.00;96658.25;4966106;28;20305;-62
2021/06/10 01:01:48;;;;;;;14.05;9.00;;;;;;;14.17;100.00;96709.06;4965575;28;20553;-61
2021/06/10 01:04:14;;;;;;;14.98;9.07;;;;;;;13.72;100.00;96650.69;4966065;28;20058;-62
2021/06/10 01:06:57;;;;;;;12.32;8.43;;;;;;;14.27;99.70;96704.69;4964397;28;20066;-62
2021/06/10 01:09:31;;;;;;;12.43;6.63;;;;;;;14.45;97.79;96711.78;4964238;28;20046;-61
2021/06/10 01:12:21;;;;;;;8.73;6.47;;;;;;;14.47;97.65;96706.63;4964366;28;20070;-61
2021/06/10 01:15:02;;;;;;;8.23;6.72;;;;;;;14.19;96.83;96659.34;4966162;28;20084;-62
2021/06/10 01:17:31;;;;;;;8.70;6.68;;;;;;;13.98;97.33;96644.66;4964794;28;20117;-61
2021/06/10 01:20:00;;;;;;;8.60;6.22;;;;;;;14.40;98.10;96708.66;4964767;28;20038;-64
2021/06/10 01:22:25;;;;;;;7.97;5.95;;;;;;;14.45;98.39;96702.63;4965716;28;20114;-62
2021/06/10 01:25:02;;;;;;;9.88;6.05;;;;;;;14.47;97.44;96708.59;4964359;28;20420;-61
2021/06/10 01:27:31;;;;;;;12.15;7.32;;;;;;;14.26;97.89;96692.75;4966134;28;20049;-64
2021/06/10 01:30:05;;;;;;;10.82;7.40;;;;;;;14.36;98.13;96705.06;4963895;28;20026;-64
2021/06/10 01:32:32;;;;;;;;;;;;;;;14.37;97.96;96703.88;4965699;28;20038;-63
2021/06/10 01:34:59;;;;;;;11.82;6.70;;;;;;;14.36;97.88;96708.66;4964226;28;19918;-64
2021/06/10 01:37:27;;;;;;;8.73;6.85;;;;;;;14.42;98.78;96700.66;4965336;28;20047;-64
2021/06/10 01:39:52;;;;;;;7.45;6.13;;;;;;;14.16;96.96;96648.19;4965673;28;20471;-64
2021/06/10 01:42:18;;;;;;;7.35;6.53;;;;;;;14.05;97.16;96625.16;4965118;28;20118;-65
2021/06/10 01:44:45;;;;;;;7.07;6.38;;;;;;;14.49;97.14;96689.50;4963740;28;20038;-63
2021/06/10 01:47:12;;;;;;;9.85;6.40;;;;;;;14.33;97.19;96675.22;4963630;28;20039;-64
2021/06/10 01:49:39;;;;;;;7.00;6.30;;;;;;;14.40;97.39;96698.28;4965436;28;20110;-63
2021/06/10 01:52:06;;;;;;;9.10;7.47;;;;;;;14.39;98.58;96690.31;4964938;28;20086;-63
2021/06/10 01:54:34;;;;;;;9.43;6.80;;;;;;;14.10;98.97;96644.25;4965146;28;20030;-64
2021/06/10 01:57:01;;;;;;;10.98;6.75;;;;;;;13.98;97.18;96602.88;4790911;28;5000744;-64
2021/06/10 01:59:27;;;;;;;6.53;5.78;;;;;;;14.06;97.01;96626.72;4982641;28;20068;-67
2021/06/10 02:01:53;;;;;;;7.40;6.28;;;;;;;14.15;96.81;96649.38;4984556;28;20066;-62
2021/06/10 02:04:22;;;;;;;9.40;6.55;;;;;;;13.78;97.06;96585.06;4984463;28;20034;-63
2021/06/10 02:06:49;;;;;;;8.55;6.45;;;;;;;14.49;97.23;96697.84;4984087;28;20505;-63
2021/06/10 02:09:15;;;;;;;7.70;6.40;;;;;;;14.45;97.48;96694.28;4984627;28;20038;-65
2021/06/10 02:11:41;;;;;;;6.95;5.70;;;;;;;14.43;97.66;96691.13;4983999;28;20046;-66
2021/06/10 02:14:07;;;;;;;10.13;6.22;;;;;;;14.44;97.67;96689.91;4983219;28;20505;-63
2021/06/10 02:16:38;;;;;;;6.65;5.60;;;;;;;14.38;98.36;96689.53;4982714;28;20068;-63
2021/06/10 02:19:04;;;;;;;6.97;6.07;;;;;;;14.01;98.43;96638.28;4985050;28;20038;-63
2021/06/10 02:21:31;;;;;;;6.97;6.28;;;;;;;14.37;98.18;96709.47;4983522;28;20394;-63
2021/06/10 02:23:57;;;;;;;8.35;5.80;;;;;;;14.01;98.10;96680.84;4983151;28;20125;-63
2021/06/10 02:26:22;;;;;;;10.93;6.90;;;;;;;14.00;98.56;96656.19;4983928;28;20113;-64
2021/06/10 02:28:47;;;;;;;12.75;7.90;;;;;;;13.89;100.00;96716.69;4982549;28;20520;-63
2021/06/10 02:31:13;;;;;;;18.92;9.95;;;;;;;13.53;100.00;96716.69;4982421;28;20532;-63
2021/06/10 02:33:41;;;;;;;17.95;9.80;;;;;;;13.06;100.00;96733.72;4984262;28;20054;-63
2021/06/10 02:36:09;;;;;;;13.05;8.95;;;;;;;12.97;100.00;96747.19;4983898;28;20097;-64
2021/06/10 02:38:37;;;;;;;15.05;9.95;;;;;;;13.25;100.00;96725.03;4983113;28;20057;-63
2021/06/10 02:41:04;;;;;;;13.35;9.15;;;;;;;13.52;100.00;96737.38;4982370;28;20038;-64
2021/06/10 02:43:34;;;;;;;14.85;9.80;;;;;;;13.65;100.00;96719.09;4982567;28;20560;-63
2021/06/10 02:46:01;;;;;;;10.82;8.30;;;;;;;13.74;100.00;96726.25;4983745;28;20513;-65
2021/06/10 02:48:31;;;;;;;13.00;8.52;;;;;;;13.86;100.00;96718.28;4984221;28;20042;-65
2021/06/10 02:50:58;;;;;;;9.07;7.28;;;;;;;13.93;100.00;96714.66;4981873;28;20046;-63
2021/06/10 02:53:27;;;;;;;8.65;7.50;;;;;;;13.61;100.00;96656.25;4984146;28;20053;-63
2021/06/10 02:55:54;;;;;;;8.70;6.78;;;;;;;14.08;100.00;96713.47;4983982;28;20886;-63
2021/06/10 02:58:22;;;;;;;9.82;6.90;;;;;;;14.22;99.51;96722.59;4982481;28;20038;-63
2021/06/10 03:00:48;;;;;;;9.27;6.82;;;;;;;14.19;98.63;96720.63;4981960;28;20057;-63
2021/06/10 03:03:15;;;;;;;8.50;6.63;;;;;;;13.94;98.17;96675.28;4983911;28;20034;-63
2021/06/10 03:05:42;;;;;;;10.00;6.95;;;;;;;14.14;98.99;96723.00;4983444;28;20286;-64
2021/06/10 03:08:17;;;;;;;9.32;6.47;;;;;;;13.73;99.66;96663.41;4983756;28;20095;-62
2021/06/10 03:10:44;;;;;;;9.80;6.53;;;;;;;14.06;99.55;96699.16;4982039;28;20528;-64
2021/06/10 03:13:16;;;;;;;14.95;7.45;;;;;;;13.83;99.13;96732.19;4967606;28;20043;-64
2021/06/10 03:15:44;;;;;;;28.27;10.88;;;;;;;13.14;100.00;96718.66;4963662;28;20651;-62
2021/06/10 03:18:12;;;;;;;10.63;7.57;;;;;;;12.96;100.00;96753.13;4967401;28;20034;-62
2021/06/10 03:20:38;;;;;;;14.75;9.02;;;;;;;12.74;100.00;96757.81;4965918;28;20485;-64
2021/06/10 03:23:03;;;;;;;10.60;7.35;;;;;;;13.10;100.00;96748.41;4966009;28;20082;-64
2021/06/10 03:25:30;;;;;;;11.60;7.85;;;;;;;13.25;100.00;96749.25;4965771;28;20047;-63
2021/06/10 03:27:56;;;;;;;10.93;7.57;;;;;;;12.68;100.00;96626.00;4966170;28;20485;-63
2021/06/10 03:30:22;;;;;;;8.73;7.35;;;;;;;13.53;100.00;96738.19;4967222;28;20102;-63
2021/06/10 03:32:49;;;;;;;8.75;6.85;;;;;;;13.66;100.00;96737.38;4966406;28;20027;-66
2021/06/10 03:35:15;;;;;;;12.18;7.85;;;;;;;13.73;100.00;96738.56;4967253;28;20034;-66
2021/06/10 03:37:41;;;;;;;9.60;7.10;;;;;;;13.29;100.00;96656.28;4967375;28;20126;-63
2021/06/10 03:40:10;;;;;;;7.13;6.35;;;;;;;13.83;100.00;96712.72;4965552;28;20030;-63
2021/06/10 03:42:36;;;;;;;9.57;6.53;;;;;;;13.34;100.00;96625.28;4967642;28;20069;-63
2021/06/10 03:45:04;;;;;;;11.23;7.40;;;;;;;14.17;100.00;96727.78;4967375;28;20026;-63
2021/06/10 03:47:29;;;;;;;14.73;7.82;;;;;;;14.22;100.00;96730.94;4967471;28;20046;-63
2021/06/10 03:49:55;;;;;;;14.80;7.70;;;;;;;14.30;99.53;96738.13;4967732;28;20039;-63
2021/06/10 03:52:25;;;;;;;8.90;6.65;;;;;;;14.36;98.36;96724.56;4965375;28;20035;-64
2021/06/10 03:54:51;;;;;;;6.90;6.15;;;;;;;14.43;97.15;96699.47;4967346;28;20035;-63
2021/06/10 03:57:16;;;;;;;7.10;6.40;;;;;;;14.21;94.90;96678.44;4967094;28;20387;-64
2021/06/10 03:59:45;;;;;;;7.05;5.53;;;;;;;14.81;93.99;96729.19;4967652;28;20043;-63
2021/06/10 04:02:10;;;;;;;10.70;5.95;;;;;;;14.70;94.01;96706.13;4965303;28;20141;-63
2021/06/10 04:04:36;;;;;;;9.63;6.05;;;;;;;14.46;93.57;96676.38;4967222;28;20962;-64
2021/06/10 04:07:01;;;;;;;9.25;5.55;;;;;;;14.47;93.69;96670.41;4967020;28;20046;-63
2021/06/10 04:09:27;;;;;;;8.70;7.35;;;;;;;14.45;93.38;96666.41;4965859;28;20038;-65
2021/06/10 04:11:52;;;;;;;17.40;7.20;;;;;;;14.51;93.51;96703.84;4972043;28;20153;-63
2021/06/10 04:14:18;;;;;;;9.35;6.88;;;;;;;14.68;93.88;96714.09;4986288;28;20034;-63
2021/06/10 04:16:45;;;;;;;8.38;6.00;;;;;;;14.77;94.36;96718.06;4985832;28;20128;-65
2021/06/10 04:19:12;;;;;;;7.75;6.47;;;;;;;14.67;93.68;96698.56;4986300;28;20652;-64
2021/06/10 04:21:37;;;;;;;7.45;6.55;;;;;;;15.10;92.03;96725.03;4983943;28;20077;-64
2021/06/10 04:24:03;;;;;;;10.07;6.47;;;;;;;15.11;92.39;96732.22;4984503;28;20086;-63
2021/06/10 04:26:29;;;;;;;10.27;6.60;;;;;;;14.47;91.67;96670.41;4986252;28;20097;-64
2021/06/10 04:28:54;;;;;;;8.32;6.88;;;;;;;15.05;91.47;96700.34;4985636;28;20040;-64
2021/06/10 04:31:20;;;;;;;11.20;7.80;;;;;;;14.92;90.54;96663.00;4985717;28;20055;-64
2021/06/10 04:33:47;;;;;;;11.15;7.65;;;;;;;15.49;90.02;96736.78;4985929;28;20033;-63
2021/06/10 04:36:13;;;;;;;37.55;12.25;;;;;;;15.12;92.73;96742.19;4985632;28;20035;-63
2021/06/10 04:38:39;;;;;;;20.52;8.93;;;;;;;15.15;93.83;96760.88;4985298;28;20026;-63
2021/06/10 04:41:09;;;;;;;26.40;11.27;;;;;;;14.61;97.88;96747.56;4984140;28;20046;-63
2021/06/10 04:43:34;;;;;;;19.20;8.55;;;;;;;15.01;95.91;96767.34;4984470;28;20155;-63
2021/06/10 04:46:00;;;;;;;15.13;8.13;;;;;;;15.31;95.63;96752.81;4984996;28;20112;-64
2021/06/10 04:48:26;;;;;;;9.88;7.40;;;;;;;15.63;92.29;96747.84;4984218;28;20108;-64
2021/06/10 04:50:56;;;;;;;11.23;7.47;;;;;;;15.71;91.73;96743.78;4984989;28;20445;-63
2021/06/10 04:53:22;;;;;;;10.95;7.35;;;;;;;15.43;92.34;96646.31;4985282;28;20172;-63
2021/06/10 04:55:48;;;;;;;13.75;8.38;;;;;;;16.23;90.87;96720.16;4985073;28;20034;-64
2021/06/10 04:58:13;;;;;;;11.15;8.32;;;;;;;16.03;91.55;96666.09;4985324;28;20539;-61
2021/06/10 05:00:39;;;;;;;8.80;7.85;;;;;;;16.37;89.63;96646.53;4982909;28;20034;-64
2021/06/10 05:03:05;;;;;;;10.93;7.53;;;;;;;16.94;88.24;96691.41;4986279;28;20044;-64
2021/06/10 05:05:31;;;;;;;9.55;7.60;;;;;;;17.12;88.29;96686.34;4985108;28;20057;-64
2021/06/10 05:07:56;;;;;;;9.20;6.88;;;;;;;17.01;87.41;96624.91;4985308;28;20443;-62
2021/06/10 05:10:22;;;;;;;14.30;6.00;;;;;;;17.48;87.15;96684.63;4985156;28;20041;-63
2021/06/10 05:12:47;;;;;;;12.27;5.88;;;;;;;17.32;88.28;96673.25;4971751;28;20102;-62
2021/06/10 05:15:13;;;;;;;5.97;5.43;;;;;;;17.26;89.71;96669.34;4966015;28;20166;-62
2021/06/10 05:17:39;;;;;;;6.95;5.75;;;;;;;17.51;89.68;96681.78;4965968;28;20561;-63
2021/06/10 05:20:05;;;;;;;7.43;5.32;;;;;;;17.60;89.15;96662.44;4964077;28;20046;-64
2021/06/10 05:22:30;;;;;;;6.60;5.65;;;;;;;17.59;89.55;96665.66;4965884;28;20034;-62
2021/06/10 05:24:56;;;;;;;5.63;4.60;;;;;;;17.73;89.40;96665.41;4966137;28;20037;-62
2021/06/10 05:27:21;;;;;;;6.10;5.22;;;;;;;17.91;89.41;96677.09;4965169;28;20035;-62
2021/06/10 05:29:47;;;;;;;6.53;5.50;;;;;;;18.07;88.55;96660.38;4965625;28;20034;-63
2021/06/10 05:32:13;;;;;;;8.25;4.50;;;;;;;17.38;91.61;96638.75;4964007;28;20512;-63
2021/06/10 05:34:38;;;;;;;9.18;6.05;;;;;;;17.09;93.77;96626.41;4963772;28;20117;-63
2021/06/10 05:37:04;;;;;;;12.35;8.88;;;;;;;17.78;91.49;96674.13;4963468;28;20587;-63
2021/06/10 05:39:30;;;;;;;16.73;11.63;;;;;;;17.50;88.92;96600.97;4964517;28;20035;-63
2021/06/10 05:41:56;;;;;;;15.20;8.32;;;;;;;18.19;86.85;96690.63;4965191;28;20097;-62
2021/06/10 05:44:21;;;;;;;11.48;6.97;;;;;;;17.95;85.89;96645.00;4965592;28;20027;-64
2021/06/10 05:46:50;;;;;;;6.85;5.38;;;;;;;18.40;84.01;96687.44;4964451;28;20042;-61
2021/06/10 05:49:16;;;;;;;7.50;6.72;;;;;;;18.12;85.16;96676.72;4965752;28;20038;-65
2021/06/10 05:51:42;;;;;;;11.13;6.10;;;;;;;18.26;84.87;96698.13;4965156;28;20640;-63
2021/06/10 05:54:08;;;;;;;13.23;8.73;;;;;;;18.15;85.06;96641.44;4965558;28;20082;-63
2021/06/10 05:56:33;;;;;;;9.60;6.57;;;;;;;18.79;81.35;96665.00;4963164;28;20047;-63
2021/06/10 05:58:59;;;;;;;8.95;7.00;;;;;;;18.49;79.07;96640.00;4964963;28;20054;-63
2021/06/10 06:01:26;;;;;;;7.25;6.10;;;;;;;18.53;82.20;96713.63;4973511;28;20513;-65
2021/06/10 06:03:51;;;;;;;9.82;6.90;;;;;;;19.25;78.53;96720.94;4998593;28;20505;-65
2021/06/10 06:06:19;;;;;;;16.60;9.20;;;;;;;19.10;76.37;96629.03;4982223;28;20038;-65
2021/06/10 06:08:46;;;;;;;22.10;11.07;;;;;;;19.43;74.77;96625.84;4983924;28;20569;-64
2021/06/10 06:11:12;;;;;;;5.88;5.28;;;;;;;19.07;78.27;96720.53;4983953;28;20508;-67
2021/06/10 06:13:47;;;;;;;21.45;11.20;;;;;;;18.54;78.23;96610.63;4982805;28;20038;-60
2021/06/10 06:16:16;;;;;;;6.60;5.90;;;;;;;18.82;76.99;96703.44;4983854;28;20073;-65
2021/06/10 06:18:42;;;;;;;8.73;5.55;;;;;;;18.78;73.97;96649.38;4983718;28;20109;-67
2021/06/10 06:21:08;;;;;;;8.27;5.75;;;;;;;19.40;70.80;96621.13;4983425;28;20046;-61
2021/06/10 06:23:33;;;;;;;7.20;5.65;;;;;;;20.48;69.44;96729.22;4983947;28;20390;-66
2021/06/10 06:25:59;;;;;;;7.65;5.78;;;;;;;20.81;68.24;96727.09;4982111;28;20034;-68
2021/06/10 06:28:26;;;;;;;9.63;4.68;;;;;;;20.52;66.33;96622.16;4983645;28;20030;-63
2021/06/10 06:30:51;;;;;;;5.75;4.88;;;;;;;21.19;67.61;96750.56;4980417;28;20074;-72
2021/06/10 06:33:17;;;;;;;6.95;4.47;;;;;;;21.53;66.06;96731.00;4983937;28;20128;-61
2021/06/10 06:35:44;;;;;;;9.70;4.82;;;;;;;21.71;64.62;96745.34;4986815;28;20049;-74
2021/06/10 06:38:10;;;;;;;10.20;4.97;;;;;;;21.41;64.36;96664.16;4986165;28;20038;-62
2021/06/10 06:40:35;;;;;;;5.45;4.50;;;;;;;21.08;62.87;96634.59;4995170;28;20046;-68
2021/06/10 06:43:01;;;;;;;6.35;4.30;;;;;;;21.66;60.98;96757.19;4984616;28;20489;-70
2021/06/10 06:45:27;;;;;;;4.03;2.53;;;;;;;21.75;56.91;96743.22;4977835;28;20043;-61
2021/06/10 06:47:52;;;;;;;3.25;2.70;;;;;;;20.42;56.89;96595.13;4981319;28;20043;-72
2021/06/10 06:50:18;;;;;;;13.40;7.20;;;;;;;21.20;58.08;96742.94;4980278;28;20662;-64
2021/06/10 06:52:44;;;;;;;5.47;2.67;;;;;;;19.88;58.74;96547.22;4983794;28;20203;-72
2021/06/10 06:55:10;;;;;;;3.83;2.40;;;;;;;21.31;58.84;96763.91;4984016;28;20026;-67
2021/06/10 06:57:36;;;;;;;6.20;2.92;;;;;;;21.35;60.66;96758.97;4984267;28;20037;-68
2021/06/10 07:00:04;;;;;;;5.80;4.40;;;;;;;20.96;66.27;96719.84;4986008;28;20497;-61
2021/06/10 07:02:29;;;;;;;10.00;4.78;;;;;;;20.98;69.94;96756.81;4985531;28;20042;-70
2021/06/10 07:04:55;;;;;;;5.40;4.90;;;;;;;20.94;71.29;96750.47;4986918;28;20497;-63
2021/06/10 07:07:20;;;;;;;6.65;5.95;;;;;;;20.97;72.50;96760.88;4986350;28;20472;-63
2021/06/10 07:09:46;;;;;;;6.80;5.03;;;;;;;20.84;70.28;96745.91;4986331;28;20137;-63
2021/06/10 07:12:11;;;;;;;11.23;5.20;;;;;;;21.01;70.19;96783.31;4984353;28;20169;-72
2021/06/10 07:14:37;;;;;;;7.90;4.55;;;;;;;21.06;68.33;96779.94;4986354;28;20271;-71
2021/06/10 07:17:03;;;;;;;6.68;4.75;;;;;;;21.06;68.19;96783.53;5000916;28;20061;-65
2021/06/10 07:19:28;;;;;;;7.30;4.60;;;;;;;21.00;67.11;96793.78;4987789;28;20034;-63
2021/06/10 07:21:54;;;;;;;7.43;4.10;;;;;;;20.87;67.08;96795.72;4987377;28;20125;-71
2021/06/10 07:24:19;;;;;;;6.55;3.97;;;;;;;21.13;65.25;96780.53;4987321;28;20042;-62
2021/06/10 07:26:45;;;;;;;5.72;3.13;;;;;;;21.19;61.65;96789.22;4987034;28;20081;-73
2021/06/10 07:29:12;;;;;;;3.33;2.20;;;;;;;21.15;60.71;96783.69;4985998;28;20030;-75
2021/06/10 07:31:40;;;;;;;4.47;2.50;;;;;;;20.71;61.12;96736.63;4986709;28;20074;-62
2021/06/10 07:34:06;;;;;;;2.38;2.15;;;;;;;21.18;61.73;96788.44;4987549;28;20130;-75
2021/06/10 07:36:33;;;;;;;3.15;2.15;;;;;;;21.17;59.99;96757.88;4987403;28;20121;-71
2021/06/10 07:39:00;;;;;;;4.97;3.58;;;;;;;21.43;59.93;96782.88;4986942;28;20061;-60
2021/06/10 07:41:26;;;;;;;5.68;2.53;;;;;;;21.38;61.34;96779.81;4987025;28;20038;-59
2021/06/10 07:43:52;;;;;;;4.35;2.70;;;;;;;21.30;61.71;96784.88;4987220;28;20034;-60
2021/06/10 07:46:17;;;;;;;4.70;2.38;;;;;;;21.56;61.58;96775.22;4986743;28;20042;-60
2021/06/10 07:48:43;;;;;;;5.07;2.97;;;;;;;22.03;62.04;96770.56;4985385;28;20034;-73
2021/06/10 07:51:09;;;;;;;6.13;3.35;;;;;;;22.41;59.41;96774.09;4984274;28;20050;-71
2021/06/10 07:53:36;;;;;;;8.70;3.72;;;;;;;22.76;58.61;96782.63;4986059;28;20306;-74
2021/06/10 07:56:04;;;;;;;5.40;3.75;;;;;;;23.20;56.99;96779.41;4983149;28;20030;-71
2021/06/10 07:58:30;;;;;;;2.95;2.60;;;;;;;22.32;56.06;96723.19;4984954;28;20498;-74
2021/06/10 08:00:55;;;;;;;4.47;3.22;;;;;;;22.42;57.09;96707.94;4984693;28;20260;-73
2021/06/10 08:03:21;;;;;;;7.65;5.38;;;;;;;23.16;55.84;96790.03;4983653;28;20033;-67
2021/06/10 08:05:47;;;;;;;9.55;5.03;;;;;;;23.25;57.26;96792.16;4983048;28;20030;-61
2021/06/10 08:08:13;;;;;;;7.05;4.10;;;;;;;22.29;55.66;96647.91;4986501;28;20050;-59
2021/06/10 08:10:40;;;;;;;3.30;3.00;;;;;;;22.66;56.14;96755.53;4985746;28;20034;-67
2021/06/10 08:13:06;;;;;;;4.25;3.75;;;;;;;22.29;58.05;96732.59;4985011;28;20505;-71
2021/06/10 08:15:31;;;;;;;5.47;4.10;;;;;;;22.27;59.14;96802.03;4984979;28;20043;-76
2021/06/10 08:18:02;;;;;;;7.13;3.20;;;;;;;21.41;57.05;96630.34;4986176;28;20129;-69
2021/06/10 08:20:29;;;;;;;2.25;2.10;;;;;;;22.51;56.82;96799.63;4986086;28;20508;-61
2021/06/10 08:22:58;;;;;;;5.78;2.33;;;;;;;21.74;55.50;96595.00;4985534;28;20595;-62
2021/06/10 08:25:26;;;;;;;3.45;2.33;;;;;;;21.02;55.97;96481.50;4982707;28;20074;-75
2021/06/10 08:27:52;;;;;;;6.95;3.08;;;;;;;23.13;56.24;96796.63;4985113;28;20034;-70
2021/06/10 08:30:18;;;;;;;3.13;2.83;;;;;;;23.07;56.33;96781.50;4984335;28;20030;-66
2021/06/10 08:32:44;;;;;;;3.08;2.70;;;;;;;23.24;56.69;96762.28;4985927;28;20049;-60
2021/06/10 08:35:10;;;;;;;5.93;2.90;;;;;;;22.95;55.85;96773.06;4985554;28;20051;-67
2021/06/10 08:37:35;;;;;;;5.80;2.65;;;;;;;23.41;54.41;96749.59;4985906;28;20390;-70
2021/06/10 08:40:03;;;;;;;2.78;2.13;;;;;;;23.80;49.45;96748.84;4986045;28;20026;-69
2021/06/10 08:42:29;;;;;;;4.22;3.30;;;;;;;22.97;50.62;96691.47;4985127;28;20133;-62
2021/06/10 08:44:55;;;;;;;4.70;2.97;;;;;;;24.42;50.84;96789.97;4982922;28;20527;-70
2021/06/10 08:47:24;;;;;;;3.22;2.47;;;;;;;24.47;47.89;96701.56;4984477;28;20041;-60
2021/06/10 08:49:50;;;;;;;3.08;1.98;;;;;;;25.36;46.45;96766.50;4984494;28;20045;-63
2021/06/10 08:52:16;;;;;;;2.30;2.10;;;;;;;26.02;44.06;96791.00;4985479;28;20026;-62
2021/06/10 08:54:41;;;;;;;2.63;2.42;;;;;;;26.26;42.75;96783.31;4985584;28;20034;-64
2021/06/10 08:57:08;;;;;;;3.75;2.60;;;;;;;26.69;41.83;96782.81;4985680;28;20129;-68
2021/06/10 08:59:34;;;;;;;4.45;2.85;;;;;;;26.81;43.47;96789.53;4999646;28;20030;-67
2021/06/10 09:01:59;;;;;;;3.13;2.55;;;;;;;26.56;41.77;96722.53;4984089;28;20038;-73
2021/06/10 09:04:25;;;;;;;5.80;2.72;;;;;;;26.25;42.03;96696.53;4985128;28;20409;-60
2021/06/10 09:06:54;;;;;;;4.28;3.88;;;;;;;26.43;42.36;96710.66;4984713;28;20034;-62
2021/06/10 09:09:21;;;;;;;2.95;2.75;;;;;;;27.21;41.36;96784.94;4980387;28;20440;-64
2021/06/10 09:11:48;;;;;;;2.47;2.30;;;;;;;27.43;41.74;96791.09;4984560;28;20042;-59
2021/06/10 09:14:13;;;;;;;2.60;2.40;;;;;;;27.35;41.20;96715.94;4982358;28;20523;-58
2021/06/10 09:16:40;;;;;;;2.60;2.40;;;;;;;27.86;40.73;96778.97;4984514;28;20038;-75
2021/06/10 09:19:19;;;;;;;3.30;3.00;;;;;;;28.36;41.11;96776.97;4984917;28;20038;-60
2021/06/10 09:21:48;;;;;;;3.08;2.80;;;;;;;28.30;39.58;96741.13;4983386;28;20042;-68
2021/06/10 09:24:32;;;;;;;3.28;2.92;;;;;;;28.38;41.17;96728.81;4983473;28;20090;-58
2021/06/10 09:27:05;;;;;;;2.83;2.30;;;;;;;28.80;40.46;96776.88;4964958;28;20042;-59
2021/06/10 09:29:46;;;;;;;2.33;2.20;;;;;;;28.47;40.64;96771.44;4979765;28;20057;-66
2021/06/10 09:32:25;;;;;;;2.42;2.22;;;;;;;28.60;41.29;96785.38;4984905;28;20061;-62
2021/06/10 09:34:56;;;;;;;3.78;3.25;;;;;;;27.50;41.74;96682.59;4984794;28;20026;-70
2021/06/10 09:37:38;;;;;;;2.72;2.58;;;;;;;28.27;41.46;96764.91;4982090;28;20056;-66
2021/06/10 09:40:18;;;;;;;5.18;4.68;;;;;;;28.18;43.08;96757.28;4984144;28;20050;-71
2021/06/10 09:42:52;;;;;;;4.85;2.95;;;;;;;28.38;41.78;96747.97;4984089;28;20042;-71
2021/06/10 09:45:20;;;;;;;5.18;4.03;;;;;;;28.53;41.46;96754.47;4998002;28;20038;-61
2021/06/10 09:47:52;;;;;;;3.80;3.50;;;;;;;26.85;43.98;96756.81;4982776;28;20133;-72
2021/06/10 09:50:23;;;;;;;4.15;3.75;;;;;;;25.85;45.79;96758.50;4981961;28;20097;-66
2021/06/10 09:52:56;;;;;;;3.38;3.08;;;;;;;25.63;47.69;96750.22;4984272;28;20034;-61
2021/06/10 09:55:35;;;;;;;3.33;3.03;;;;;;;25.18;47.06;96745.38;4982027;28;20045;-59
2021/06/10 09:58:13;;;;;;;3.13;2.92;;;;;;;26.05;45.63;96741.78;4984107;28;20042;-71
2021/06/10 10:00:50;;;;;;;4.20;2.80;;;;;;;25.55;45.14;96731.19;4980515;28;20033;-76
2021/06/10 10:03:25;;;;;;;3.13;2.92;;;;;;;25.67;44.92;96735.88;4984903;28;20038;-77
2021/06/10 10:05:59;;;;;;;5.47;5.03;;;;;;;25.42;46.54;96733.44;4984119;28;20045;-61
2021/06/10 10:08:28;;;;;;;3.85;3.35;;;;;;;25.76;44.78;96727.34;4984454;28;20109;-60
2021/06/10 10:10:54;;;;;;;3.78;3.28;;;;;;;26.03;44.21;96730.91;4984220;28;20038;-61
2021/06/10 10:13:21;;;;;;;11.50;5.97;;;;;;;26.02;44.71;96723.63;4984189;28;20038;-62
2021/06/10 10:15:48;;;;;;;7.32;4.85;;;;;;;26.11;42.63;96720.78;4984003;28;20035;-64
2021/06/10 10:18:17;;;;;;;3.80;3.50;;;;;;;25.58;43.22;96673.47;4984735;28;20127;-61
2021/06/10 10:20:42;;;;;;;3.10;2.90;;;;;;;25.25;43.98;96676.22;4984654;28;20041;-60
2021/06/10 10:23:08;;;;;;;3.08;2.75;;;;;;;25.29;42.97;96694.66;4984137;28;20109;-71
2021/06/10 10:25:34;;;;;;;2.75;2.55;;;;;;;26.03;42.79;96715.91;4983413;28;20034;-72
2021/06/10 10:28:01;;;;;;;2.85;2.65;;;;;;;26.40;41.22;96705.91;4983782;28;20034;-71
2021/06/10 10:30:27;;;;;;;2.97;2.78;;;;;;;26.65;41.32;96668.53;4982122;28;20141;-61
2021/06/10 10:32:54;;;;;;;4.25;3.50;;;;;;;26.19;41.78;96655.88;4982624;28;20113;-67
2021/06/10 10:35:22;;;;;;;3.70;3.13;;;;;;;26.72;38.71;96702.25;4982044;28;20031;-72
2021/06/10 10:37:49;;;;;;;5.05;3.22;;;;;;;26.23;39.49;96710.44;4984071;28;20121;-59
2021/06/10 10:40:29;;;;;;;3.65;2.92;;;;;;;26.58;40.41;96697.28;4980698;28;20085;-71
2021/06/10 10:43:08;;;;;;;3.72;3.15;;;;;;;23.15;39.09;96052.94;4982655;28;20145;-60
2021/06/10 10:45:34;;;;;;;3.47;3.10;;;;;;;27.01;38.91;96693.00;4977729;28;20528;-68
2021/06/10 10:48:04;;;;;;;3.42;3.00;;;;;;;26.14;38.50;96663.00;4983494;28;20026;-68
2021/06/10 10:50:38;;;;;;;5.25;2.88;;;;;;;26.70;38.60;96685.69;4983034;28;20046;-61
2021/06/10 10:53:25;;;;;;;3.15;2.95;;;;;;;26.81;39.13;96687.94;4981605;28;20030;-70
2021/06/10 10:56:03;;;;;;;3.45;3.15;;;;;;;27.34;38.42;96674.53;4982919;28;20043;-74
2021/06/10 10:58:29;;;;;;;3.10;2.88;;;;;;;27.01;38.50;96653.19;4983409;28;20030;-61
2021/06/10 11:00:59;;;;;;;4.60;3.83;;;;;;;27.10;38.40;96675.84;4982946;28;20096;-60
2021/06/10 11:03:42;;;;;;;3.45;3.17;;;;;;;26.17;38.68;96627.16;4983322;28;20088;-61
2021/06/10 11:06:28;;;;;;;3.50;3.20;;;;;;;27.03;38.01;96674.16;4983475;28;20049;-60
2021/06/10 11:08:57;;;;;;;3.25;3.05;;;;;;;26.77;39.79;96658.16;4983565;28;20030;-72
2021/06/10 11:11:53;;;;;;;2.88;2.65;;;;;;;27.34;37.94;96660.31;4983376;28;20651;-70
2021/06/10 11:14:38;;;;;;;4.45;3.38;;;;;;;27.12;37.81;96665.56;4983526;28;20034;-60
2021/06/10 11:17:24;;;;;;;3.95;3.00;;;;;;;27.58;37.20;96655.31;4981932;28;20067;-62
2021/06/10 11:20:01;;;;;;;3.13;2.92;;;;;;;25.37;37.72;96232.09;4982332;28;20502;-60
2021/06/10 11:22:32;;;;;;;3.40;3.20;;;;;;;28.43;37.35;96665.41;4981855;28;20038;-71
2021/06/10 11:24:59;;;;;;;2.90;2.70;;;;;;;26.87;38.14;96654.75;4984061;28;20034;-74
2021/06/10 11:27:57;;;;;;;3.10;2.90;;;;;;;26.38;38.30;96581.41;4983542;28;20046;-60
2021/06/10 11:30:28;;;;;;;3.72;3.42;;;;;;;26.83;37.96;96560.34;4980332;28;20112;-58
2021/06/10 11:33:06;;;;;;;4.93;3.83;;;;;;;27.31;37.91;96651.97;4982528;28;20037;-70